sensor_id;sensor_type;location;lat;lon;timestamp;P1;durP1;ratioP1;P2;durP2;ratioP2
55461;SDS011;41327;45.102;20.624;2023-11-21T00:00:12;25.85;;;16.58;;
55461;SDS011;41327;45.102;20.624;2023-11-21T00:02:40;26.52;;;15.13;;
55461;SDS011;41327;45.102;20.624;2023-11-21T00:05:07;26.13;;;16.20;;
55461;SDS011;41327;45.102;20.624;2023-11-21T00:07:34;28.60;;;15.05;;
55461;SDS011;41327;45.102;20.624;2023-11-21T00:10:01;25.00;;;15.60;;
55461;SDS011;41327;45.102;20.624;2023-11-21T00:12:28;26.25;;;15.98;;
55461;SDS011;41327;45.102;20.624;2023-11-21T00:14:54;33.08;;;16.75;;
55461;SDS011;41327;45.102;20.624;2023-11-21T00:17:20;28.65;;;15.52;;
55461;SDS011;41327;45.102;20.624;2023-11-21T00:19:45;24.40;;;15.02;;
55461;SDS011;41327;45.102;20.624;2023-11-21T00:22:11;28.67;;;16.60;;
55461;SDS011;41327;45.102;20.624;2023-11-21T00:24:36;24.83;;;16.05;;
55461;SDS011;41327;45.102;20.624;2023-11-21T00:27:02;29.98;;;17.98;;
55461;SDS011;41327;45.102;20.624;2023-11-21T00:29:28;29.30;;;16.90;;
55461;SDS011;41327;45.102;20.624;2023-11-21T00:31:56;28.45;;;17.20;;
55461;SDS011;41327;45.102;20.624;2023-11-21T00:34:21;30.02;;;16.92;;
55461;SDS011;41327;45.102;20.624;2023-11-21T00:36:46;25.80;;;15.52;;
55461;SDS011;41327;45.102;20.624;2023-11-21T00:39:13;29.45;;;17.08;;
55461;SDS011;41327;45.102;20.624;2023-11-21T00:41:38;27.20;;;16.15;;
55461;SDS011;41327;45.102;20.624;2023-11-21T00:44:04;25.77;;;15.60;;
55461;SDS011;41327;45.102;20.624;2023-11-21T00:46:30;25.63;;;15.65;;
55461;SDS011;41327;45.102;20.624;2023-11-21T00:48:55;25.77;;;15.75;;
55461;SDS011;41327;45.102;20.624;2023-11-21T00:51:21;26.48;;;16.48;;
55461;SDS011;41327;45.102;20.624;2023-11-21T00:53:47;31.35;;;17.83;;
55461;SDS011;41327;45.102;20.624;2023-11-21T00:56:13;28.65;;;15.98;;
55461;SDS011;41327;45.102;20.624;2023-11-21T00:58:39;26.20;;;15.10;;
55461;SDS011;41327;45.102;20.624;2023-11-21T01:01:08;28.08;;;16.25;;
55461;SDS011;41327;45.102;20.624;2023-11-21T01:03:34;26.00;;;16.02;;
55461;SDS011;41327;45.102;20.624;2023-11-21T01:06:00;24.85;;;14.93;;
55461;SDS011;41327;45.102;20.624;2023-11-21T01:08:25;27.55;;;15.75;;
55461;SDS011;41327;45.102;20.624;2023-11-21T01:10:51;25.10;;;15.27;;
55461;SDS011;41327;45.102;20.624;2023-11-21T01:13:16;26.92;;;14.98;;
55461;SDS011;41327;45.102;20.624;2023-11-21T01:15:42;23.23;;;14.30;;
55461;SDS011;41327;45.102;20.624;2023-11-21T01:18:07;23.63;;;14.48;;
55461;SDS011;41327;45.102;20.624;2023-11-21T01:20:33;25.48;;;14.63;;
55461;SDS011;41327;45.102;20.624;2023-11-21T01:22:59;21.42;;;13.55;;
55461;SDS011;41327;45.102;20.624;2023-11-21T01:25:25;27.52;;;14.13;;
55461;SDS011;41327;45.102;20.624;2023-11-21T01:27:51;23.63;;;13.93;;
55461;SDS011;41327;45.102;20.624;2023-11-21T01:30:17;22.25;;;13.38;;
55461;SDS011;41327;45.102;20.624;2023-11-21T01:32:43;22.88;;;14.27;;
55461;SDS011;41327;45.102;20.624;2023-11-21T01:35:10;22.95;;;13.52;;
55461;SDS011;41327;45.102;20.624;2023-11-21T01:37:36;22.02;;;12.85;;
55461;SDS011;41327;45.102;20.624;2023-11-21T01:40:04;24.67;;;14.13;;
55461;SDS011;41327;45.102;20.624;2023-11-21T01:42:35;24.75;;;14.40;;
55461;SDS011;41327;45.102;20.624;2023-11-21T01:45:01;31.98;;;14.00;;
55461;SDS011;41327;45.102;20.624;2023-11-21T01:47:30;28.63;;;14.48;;
55461;SDS011;41327;45.102;20.624;2023-11-21T01:49:59;22.95;;;13.75;;
55461;SDS011;41327;45.102;20.624;2023-11-21T01:52:25;24.60;;;13.45;;
55461;SDS011;41327;45.102;20.624;2023-11-21T01:54:51;22.20;;;13.73;;
55461;SDS011;41327;45.102;20.624;2023-11-21T01:57:19;23.88;;;14.80;;
55461;SDS011;41327;45.102;20.624;2023-11-21T01:59:45;23.50;;;15.45;;
55461;SDS011;41327;45.102;20.624;2023-11-21T02:02:13;22.83;;;13.05;;
55461;SDS011;41327;45.102;20.624;2023-11-21T02:04:38;24.20;;;13.90;;
55461;SDS011;41327;45.102;20.624;2023-11-21T02:07:04;19.98;;;13.15;;
55461;SDS011;41327;45.102;20.624;2023-11-21T02:09:32;25.88;;;13.30;;
55461;SDS011;41327;45.102;20.624;2023-11-21T02:11:59;24.25;;;13.80;;
55461;SDS011;41327;45.102;20.624;2023-11-21T02:14:26;22.00;;;12.77;;
55461;SDS011;41327;45.102;20.624;2023-11-21T02:16:53;22.25;;;12.98;;
55461;SDS011;41327;45.102;20.624;2023-11-21T02:19:19;21.95;;;13.15;;
55461;SDS011;41327;45.102;20.624;2023-11-21T02:21:53;21.65;;;12.75;;
55461;SDS011;41327;45.102;20.624;2023-11-21T02:24:19;21.85;;;12.70;;
55461;SDS011;41327;45.102;20.624;2023-11-21T02:26:46;19.55;;;11.52;;
55461;SDS011;41327;45.102;20.624;2023-11-21T02:29:12;19.58;;;10.77;;
55461;SDS011;41327;45.102;20.624;2023-11-21T02:31:38;18.80;;;10.77;;
55461;SDS011;41327;45.102;20.624;2023-11-21T02:34:13;19.90;;;11.77;;
55461;SDS011;41327;45.102;20.624;2023-11-21T02:36:42;19.42;;;11.15;;
55461;SDS011;41327;45.102;20.624;2023-11-21T02:39:09;20.98;;;11.60;;
55461;SDS011;41327;45.102;20.624;2023-11-21T02:41:35;20.58;;;11.70;;
55461;SDS011;41327;45.102;20.624;2023-11-21T02:44:04;17.92;;;10.80;;
55461;SDS011;41327;45.102;20.624;2023-11-21T02:46:33;19.35;;;11.77;;
55461;SDS011;41327;45.102;20.624;2023-11-21T02:48:59;18.92;;;11.65;;
55461;SDS011;41327;45.102;20.624;2023-11-21T02:51:28;20.65;;;10.43;;
55461;SDS011;41327;45.102;20.624;2023-11-21T02:53:54;19.35;;;11.05;;
55461;SDS011;41327;45.102;20.624;2023-11-21T02:56:24;20.45;;;10.80;;
55461;SDS011;41327;45.102;20.624;2023-11-21T02:58:50;16.42;;;10.05;;
55461;SDS011;41327;45.102;20.624;2023-11-21T03:01:16;19.83;;;11.43;;
55461;SDS011;41327;45.102;20.624;2023-11-21T03:03:42;16.52;;;10.30;;
55461;SDS011;41327;45.102;20.624;2023-11-21T03:06:08;18.52;;;11.25;;
55461;SDS011;41327;45.102;20.624;2023-11-21T03:08:33;19.42;;;10.68;;
55461;SDS011;41327;45.102;20.624;2023-11-21T03:11:00;18.88;;;10.25;;
55461;SDS011;41327;45.102;20.624;2023-11-21T03:13:28;17.13;;;10.50;;
55461;SDS011;41327;45.102;20.624;2023-11-21T03:15:54;19.80;;;10.57;;
55461;SDS011;41327;45.102;20.624;2023-11-21T03:18:19;18.45;;;10.13;;
55461;SDS011;41327;45.102;20.624;2023-11-21T03:20:47;17.27;;;9.07;;
55461;SDS011;41327;45.102;20.624;2023-11-21T03:23:12;15.75;;;10.25;;
55461;SDS011;41327;45.102;20.624;2023-11-21T03:25:38;14.73;;;8.93;;
55461;SDS011;41327;45.102;20.624;2023-11-21T03:28:06;16.83;;;10.13;;
55461;SDS011;41327;45.102;20.624;2023-11-21T03:30:33;14.82;;;9.35;;
55461;SDS011;41327;45.102;20.624;2023-11-21T03:32:59;15.40;;;9.18;;
55461;SDS011;41327;45.102;20.624;2023-11-21T03:35:24;14.20;;;9.10;;
55461;SDS011;41327;45.102;20.624;2023-11-21T03:37:50;15.60;;;8.90;;
55461;SDS011;41327;45.102;20.624;2023-11-21T03:40:15;16.88;;;9.18;;
55461;SDS011;41327;45.102;20.624;2023-11-21T03:42:41;17.60;;;9.00;;
55461;SDS011;41327;45.102;20.624;2023-11-21T03:45:07;17.02;;;8.95;;
55461;SDS011;41327;45.102;20.624;2023-11-21T03:47:33;15.55;;;8.57;;
55461;SDS011;41327;45.102;20.624;2023-11-21T03:49:59;15.70;;;9.13;;
55461;SDS011;41327;45.102;20.624;2023-11-21T03:52:24;15.73;;;9.18;;
55461;SDS011;41327;45.102;20.624;2023-11-21T03:54:50;15.30;;;8.85;;
55461;SDS011;41327;45.102;20.624;2023-11-21T03:57:16;14.10;;;8.98;;
55461;SDS011;41327;45.102;20.624;2023-11-21T03:59:41;16.80;;;8.95;;
55461;SDS011;41327;45.102;20.624;2023-11-21T04:02:07;18.08;;;9.23;;
55461;SDS011;41327;45.102;20.624;2023-11-21T04:04:33;15.93;;;9.63;;
55461;SDS011;41327;45.102;20.624;2023-11-21T04:06:59;15.20;;;8.55;;
55461;SDS011;41327;45.102;20.624;2023-11-21T04:09:25;14.35;;;7.55;;
55461;SDS011;41327;45.102;20.624;2023-11-21T04:11:51;14.95;;;8.52;;
55461;SDS011;41327;45.102;20.624;2023-11-21T04:14:17;18.33;;;8.75;;
55461;SDS011;41327;45.102;20.624;2023-11-21T04:16:42;16.35;;;8.25;;
55461;SDS011;41327;45.102;20.624;2023-11-21T04:19:08;14.32;;;8.05;;
55461;SDS011;41327;45.102;20.624;2023-11-21T04:21:36;13.30;;;7.97;;
55461;SDS011;41327;45.102;20.624;2023-11-21T04:24:02;13.20;;;8.20;;
55461;SDS011;41327;45.102;20.624;2023-11-21T04:26:27;13.60;;;8.25;;
55461;SDS011;41327;45.102;20.624;2023-11-21T04:28:53;12.10;;;7.85;;
55461;SDS011;41327;45.102;20.624;2023-11-21T04:31:18;13.55;;;7.80;;
55461;SDS011;41327;45.102;20.624;2023-11-21T04:33:44;10.10;;;7.25;;
55461;SDS011;41327;45.102;20.624;2023-11-21T04:36:10;12.25;;;6.40;;
55461;SDS011;41327;45.102;20.624;2023-11-21T04:38:35;11.13;;;6.93;;
55461;SDS011;41327;45.102;20.624;2023-11-21T04:41:01;13.32;;;7.07;;
55461;SDS011;41327;45.102;20.624;2023-11-21T04:43:27;11.57;;;6.90;;
55461;SDS011;41327;45.102;20.624;2023-11-21T04:45:54;13.07;;;6.60;;
55461;SDS011;41327;45.102;20.624;2023-11-21T04:48:20;14.73;;;7.38;;
55461;SDS011;41327;45.102;20.624;2023-11-21T04:50:45;10.82;;;6.95;;
55461;SDS011;41327;45.102;20.624;2023-11-21T04:53:11;12.73;;;7.63;;
55461;SDS011;41327;45.102;20.624;2023-11-21T04:55:40;12.00;;;7.50;;
55461;SDS011;41327;45.102;20.624;2023-11-21T04:58:07;14.32;;;7.35;;
55461;SDS011;41327;45.102;20.624;2023-11-21T05:00:33;12.85;;;7.55;;
55461;SDS011;41327;45.102;20.624;2023-11-21T05:02:59;10.23;;;6.80;;
55461;SDS011;41327;45.102;20.624;2023-11-21T05:05:26;14.15;;;7.45;;
55461;SDS011;41327;45.102;20.624;2023-11-21T05:07:54;13.98;;;7.55;;
55461;SDS011;41327;45.102;20.624;2023-11-21T05:10:20;14.68;;;7.50;;
55461;SDS011;41327;45.102;20.624;2023-11-21T05:12:45;11.40;;;6.82;;
55461;SDS011;41327;45.102;20.624;2023-11-21T05:15:13;12.68;;;6.65;;
55461;SDS011;41327;45.102;20.624;2023-11-21T05:17:40;10.63;;;6.53;;
55461;SDS011;41327;45.102;20.624;2023-11-21T05:20:13;14.43;;;7.32;;
55461;SDS011;41327;45.102;20.624;2023-11-21T05:22:42;14.32;;;7.00;;
55461;SDS011;41327;45.102;20.624;2023-11-21T05:25:08;12.38;;;7.45;;
55461;SDS011;41327;45.102;20.624;2023-11-21T05:27:35;10.07;;;5.97;;
55461;SDS011;41327;45.102;20.624;2023-11-21T05:30:01;10.93;;;6.53;;
55461;SDS011;41327;45.102;20.624;2023-11-21T05:32:30;11.65;;;6.25;;
55461;SDS011;41327;45.102;20.624;2023-11-21T05:34:55;10.85;;;6.15;;
55461;SDS011;41327;45.102;20.624;2023-11-21T05:37:21;11.50;;;6.68;;
55461;SDS011;41327;45.102;20.624;2023-11-21T05:39:48;9.73;;;6.60;;
55461;SDS011;41327;45.102;20.624;2023-11-21T05:42:14;11.35;;;6.28;;
55461;SDS011;41327;45.102;20.624;2023-11-21T05:44:41;16.58;;;7.95;;
55461;SDS011;41327;45.102;20.624;2023-11-21T05:47:08;10.02;;;6.47;;
55461;SDS011;41327;45.102;20.624;2023-11-21T05:49:34;11.20;;;7.03;;
55461;SDS011;41327;45.102;20.624;2023-11-21T05:52:00;11.02;;;6.25;;
55461;SDS011;41327;45.102;20.624;2023-11-21T05:54:25;13.05;;;6.32;;
55461;SDS011;41327;45.102;20.624;2023-11-21T05:56:51;14.00;;;8.05;;
55461;SDS011;41327;45.102;20.624;2023-11-21T05:59:17;14.48;;;7.57;;
55461;SDS011;41327;45.102;20.624;2023-11-21T06:01:42;14.98;;;8.07;;
55461;SDS011;41327;45.102;20.624;2023-11-21T06:04:08;17.75;;;7.05;;
55461;SDS011;41327;45.102;20.624;2023-11-21T06:06:35;17.42;;;7.50;;
55461;SDS011;41327;45.102;20.624;2023-11-21T06:09:00;15.60;;;7.55;;
55461;SDS011;41327;45.102;20.624;2023-11-21T06:11:26;10.25;;;6.13;;
55461;SDS011;41327;45.102;20.624;2023-11-21T06:13:52;12.70;;;6.53;;
55461;SDS011;41327;45.102;20.624;2023-11-21T06:16:18;13.77;;;7.38;;
55461;SDS011;41327;45.102;20.624;2023-11-21T06:18:47;15.15;;;6.97;;
55461;SDS011;41327;45.102;20.624;2023-11-21T06:21:13;13.93;;;7.25;;
55461;SDS011;41327;45.102;20.624;2023-11-21T06:23:39;11.23;;;5.75;;
55461;SDS011;41327;45.102;20.624;2023-11-21T06:26:05;9.68;;;5.65;;
55461;SDS011;41327;45.102;20.624;2023-11-21T06:28:31;11.63;;;5.97;;
55461;SDS011;41327;45.102;20.624;2023-11-21T06:30:57;9.40;;;5.78;;
55461;SDS011;41327;45.102;20.624;2023-11-21T06:33:23;12.13;;;6.60;;
55461;SDS011;41327;45.102;20.624;2023-11-21T06:35:48;14.32;;;5.78;;
55461;SDS011;41327;45.102;20.624;2023-11-21T06:38:15;12.95;;;6.45;;
55461;SDS011;41327;45.102;20.624;2023-11-21T06:40:40;11.98;;;6.32;;
55461;SDS011;41327;45.102;20.624;2023-11-21T06:43:06;12.38;;;5.82;;
55461;SDS011;41327;45.102;20.624;2023-11-21T06:45:32;11.43;;;6.90;;
55461;SDS011;41327;45.102;20.624;2023-11-21T06:47:59;8.70;;;5.97;;
55461;SDS011;41327;45.102;20.624;2023-11-21T06:50:25;12.27;;;6.45;;
55461;SDS011;41327;45.102;20.624;2023-11-21T06:52:50;10.07;;;6.05;;
55461;SDS011;41327;45.102;20.624;2023-11-21T06:55:16;8.18;;;4.97;;
55461;SDS011;41327;45.102;20.624;2023-11-21T06:57:42;8.57;;;6.07;;
55461;SDS011;41327;45.102;20.624;2023-11-21T07:00:10;10.43;;;5.63;;
55461;SDS011;41327;45.102;20.624;2023-11-21T07:02:36;11.23;;;6.25;;
55461;SDS011;41327;45.102;20.624;2023-11-21T07:05:02;10.60;;;5.85;;
55461;SDS011;41327;45.102;20.624;2023-11-21T07:07:28;12.32;;;6.13;;
55461;SDS011;41327;45.102;20.624;2023-11-21T07:09:53;10.50;;;6.22;;
55461;SDS011;41327;45.102;20.624;2023-11-21T07:12:19;10.93;;;5.75;;
55461;SDS011;41327;45.102;20.624;2023-11-21T07:14:44;8.93;;;5.63;;
55461;SDS011;41327;45.102;20.624;2023-11-21T07:17:13;13.05;;;6.38;;
55461;SDS011;41327;45.102;20.624;2023-11-21T07:19:38;12.75;;;6.43;;
55461;SDS011;41327;45.102;20.624;2023-11-21T07:22:04;13.13;;;6.38;;
55461;SDS011;41327;45.102;20.624;2023-11-21T07:24:31;11.25;;;6.78;;
55461;SDS011;41327;45.102;20.624;2023-11-21T07:26:57;10.48;;;6.47;;
55461;SDS011;41327;45.102;20.624;2023-11-21T07:29:24;9.00;;;6.05;;
55461;SDS011;41327;45.102;20.624;2023-11-21T07:31:54;10.07;;;6.40;;
55461;SDS011;41327;45.102;20.624;2023-11-21T07:34:20;9.80;;;6.93;;
55461;SDS011;41327;45.102;20.624;2023-11-21T07:36:46;11.75;;;6.18;;
55461;SDS011;41327;45.102;20.624;2023-11-21T07:39:13;16.38;;;7.30;;
55461;SDS011;41327;45.102;20.624;2023-11-21T07:41:41;10.68;;;6.43;;
55461;SDS011;41327;45.102;20.624;2023-11-21T07:44:10;9.98;;;6.18;;
55461;SDS011;41327;45.102;20.624;2023-11-21T07:46:36;10.20;;;6.55;;
55461;SDS011;41327;45.102;20.624;2023-11-21T07:49:01;16.23;;;6.15;;
55461;SDS011;41327;45.102;20.624;2023-11-21T07:51:27;10.93;;;5.80;;
55461;SDS011;41327;45.102;20.624;2023-11-21T07:53:53;9.65;;;5.60;;
55461;SDS011;41327;45.102;20.624;2023-11-21T07:56:19;8.75;;;5.63;;
55461;SDS011;41327;45.102;20.624;2023-11-21T07:58:45;9.75;;;5.75;;
55461;SDS011;41327;45.102;20.624;2023-11-21T08:01:10;7.47;;;4.80;;
55461;SDS011;41327;45.102;20.624;2023-11-21T08:03:36;8.60;;;5.45;;
55461;SDS011;41327;45.102;20.624;2023-11-21T08:06:02;8.75;;;5.47;;
55461;SDS011;41327;45.102;20.624;2023-11-21T08:08:28;8.35;;;4.90;;
55461;SDS011;41327;45.102;20.624;2023-11-21T08:10:54;7.43;;;4.63;;
55461;SDS011;41327;45.102;20.624;2023-11-21T08:13:23;7.93;;;4.95;;
55461;SDS011;41327;45.102;20.624;2023-11-21T08:15:49;10.00;;;5.55;;
55461;SDS011;41327;45.102;20.624;2023-11-21T08:18:15;9.00;;;5.13;;
55461;SDS011;41327;45.102;20.624;2023-11-21T08:20:42;9.73;;;5.07;;
55461;SDS011;41327;45.102;20.624;2023-11-21T08:23:08;11.35;;;5.40;;
55461;SDS011;41327;45.102;20.624;2023-11-21T08:25:34;10.18;;;5.35;;
55461;SDS011;41327;45.102;20.624;2023-11-21T08:28:00;9.82;;;5.70;;
55461;SDS011;41327;45.102;20.624;2023-11-21T08:30:26;8.90;;;5.75;;
55461;SDS011;41327;45.102;20.624;2023-11-21T08:32:55;11.40;;;5.78;;
55461;SDS011;41327;45.102;20.624;2023-11-21T08:35:23;10.52;;;5.93;;
55461;SDS011;41327;45.102;20.624;2023-11-21T08:37:52;10.63;;;6.25;;
55461;SDS011;41327;45.102;20.624;2023-11-21T08:40:18;8.65;;;5.63;;
55461;SDS011;41327;45.102;20.624;2023-11-21T08:42:45;9.70;;;5.30;;
55461;SDS011;41327;45.102;20.624;2023-11-21T08:45:11;18.13;;;9.02;;
55461;SDS011;41327;45.102;20.624;2023-11-21T08:47:38;18.30;;;9.68;;
55461;SDS011;41327;45.102;20.624;2023-11-21T08:50:05;10.82;;;5.80;;
55461;SDS011;41327;45.102;20.624;2023-11-21T08:52:33;12.82;;;6.72;;
55461;SDS011;41327;45.102;20.624;2023-11-21T08:54:59;13.43;;;7.25;;
55461;SDS011;41327;45.102;20.624;2023-11-21T08:57:33;13.02;;;8.15;;
55461;SDS011;41327;45.102;20.624;2023-11-21T09:00:00;8.75;;;4.80;;
55461;SDS011;41327;45.102;20.624;2023-11-21T09:02:28;8.45;;;5.32;;
55461;SDS011;41327;45.102;20.624;2023-11-21T09:04:54;11.77;;;5.30;;
55461;SDS011;41327;45.102;20.624;2023-11-21T09:07:20;10.73;;;5.28;;
55461;SDS011;41327;45.102;20.624;2023-11-21T09:09:46;8.60;;;4.68;;
55461;SDS011;41327;45.102;20.624;2023-11-21T09:12:13;7.70;;;5.15;;
55461;SDS011;41327;45.102;20.624;2023-11-21T09:14:38;7.85;;;4.82;;
55461;SDS011;41327;45.102;20.624;2023-11-21T09:17:04;8.88;;;5.15;;
55461;SDS011;41327;45.102;20.624;2023-11-21T09:19:38;8.02;;;4.82;;
55461;SDS011;41327;45.102;20.624;2023-11-21T09:22:04;7.82;;;4.90;;
55461;SDS011;41327;45.102;20.624;2023-11-21T09:24:31;9.15;;;5.10;;
55461;SDS011;41327;45.102;20.624;2023-11-21T09:26:58;9.13;;;4.97;;
55461;SDS011;41327;45.102;20.624;2023-11-21T09:29:25;9.00;;;5.13;;
55461;SDS011;41327;45.102;20.624;2023-11-21T09:31:54;8.63;;;5.07;;
55461;SDS011;41327;45.102;20.624;2023-11-21T09:34:20;9.38;;;5.18;;
55461;SDS011;41327;45.102;20.624;2023-11-21T09:36:46;7.18;;;4.50;;
55461;SDS011;41327;45.102;20.624;2023-11-21T09:39:12;8.00;;;5.20;;
55461;SDS011;41327;45.102;20.624;2023-11-21T09:44:14;10.48;;;4.68;;
55461;SDS011;41327;45.102;20.624;2023-11-21T09:46:48;9.60;;;6.38;;
55461;SDS011;41327;45.102;20.624;2023-11-21T09:49:20;7.57;;;5.22;;
55461;SDS011;41327;45.102;20.624;2023-11-21T09:51:59;7.18;;;4.40;;
55461;SDS011;41327;45.102;20.624;2023-11-21T09:54:28;8.88;;;5.60;;
55461;SDS011;41327;45.102;20.624;2023-11-21T09:56:54;9.85;;;4.82;;
55461;SDS011;41327;45.102;20.624;2023-11-21T09:59:20;9.05;;;5.25;;
55461;SDS011;41327;45.102;20.624;2023-11-21T10:01:46;7.70;;;4.78;;
55461;SDS011;41327;45.102;20.624;2023-11-21T10:04:13;8.70;;;4.63;;
55461;SDS011;41327;45.102;20.624;2023-11-21T10:06:41;7.65;;;5.13;;
55461;SDS011;41327;45.102;20.624;2023-11-21T10:09:10;8.55;;;4.78;;
55461;SDS011;41327;45.102;20.624;2023-11-21T10:11:40;12.23;;;7.95;;
55461;SDS011;41327;45.102;20.624;2023-11-21T10:14:07;14.27;;;5.72;;
55461;SDS011;41327;45.102;20.624;2023-11-21T10:16:35;10.98;;;5.78;;
55461;SDS011;41327;45.102;20.624;2023-11-21T10:19:02;7.40;;;5.05;;
55461;SDS011;41327;45.102;20.624;2023-11-21T10:21:28;8.90;;;5.05;;
55461;SDS011;41327;45.102;20.624;2023-11-21T10:23:54;9.98;;;5.18;;
55461;SDS011;41327;45.102;20.624;2023-11-21T10:26:20;7.07;;;4.47;;
55461;SDS011;41327;45.102;20.624;2023-11-21T10:28:55;9.25;;;5.00;;
55461;SDS011;41327;45.102;20.624;2023-11-21T10:34:13;7.43;;;4.20;;
55461;SDS011;41327;45.102;20.624;2023-11-21T10:36:43;6.95;;;4.45;;
55461;SDS011;41327;45.102;20.624;2023-11-21T10:39:09;9.98;;;5.20;;
55461;SDS011;41327;45.102;20.624;2023-11-21T10:41:35;8.98;;;5.00;;
55461;SDS011;41327;45.102;20.624;2023-11-21T10:44:01;7.20;;;4.55;;
55461;SDS011;41327;45.102;20.624;2023-11-21T10:46:32;8.25;;;4.68;;
55461;SDS011;41327;45.102;20.624;2023-11-21T10:48:59;7.75;;;4.72;;
55461;SDS011;41327;45.102;20.624;2023-11-21T10:51:25;8.10;;;5.55;;
55461;SDS011;41327;45.102;20.624;2023-11-21T10:53:53;9.75;;;4.28;;
55461;SDS011;41327;45.102;20.624;2023-11-21T10:56:19;7.15;;;4.63;;
55461;SDS011;41327;45.102;20.624;2023-11-21T10:58:49;8.13;;;5.20;;
55461;SDS011;41327;45.102;20.624;2023-11-21T11:01:17;9.35;;;5.03;;
55461;SDS011;41327;45.102;20.624;2023-11-21T11:03:43;29.02;;;13.02;;
55461;SDS011;41327;45.102;20.624;2023-11-21T11:06:09;13.23;;;5.43;;
55461;SDS011;41327;45.102;20.624;2023-11-21T11:08:39;13.93;;;8.25;;
55461;SDS011;41327;45.102;20.624;2023-11-21T11:11:06;13.13;;;6.88;;
55461;SDS011;41327;45.102;20.624;2023-11-21T11:13:32;15.45;;;8.82;;
55461;SDS011;41327;45.102;20.624;2023-11-21T11:15:58;20.13;;;9.32;;
55461;SDS011;41327;45.102;20.624;2023-11-21T11:18:27;14.55;;;7.55;;
55461;SDS011;41327;45.102;20.624;2023-11-21T11:20:54;12.85;;;5.82;;
55461;SDS011;41327;45.102;20.624;2023-11-21T11:29:08;8.77;;;5.75;;
55461;SDS011;41327;45.102;20.624;2023-11-21T11:34:29;8.30;;;5.38;;
55461;SDS011;41327;45.102;20.624;2023-11-21T11:36:59;7.38;;;5.00;;
55461;SDS011;41327;45.102;20.624;2023-11-21T11:39:28;7.97;;;4.82;;
55461;SDS011;41327;45.102;20.624;2023-11-21T11:41:57;5.68;;;4.38;;
55461;SDS011;41327;45.102;20.624;2023-11-21T11:47:26;8.32;;;4.53;;
55461;SDS011;41327;45.102;20.624;2023-11-21T11:50:05;7.03;;;4.70;;
55461;SDS011;41327;45.102;20.624;2023-11-21T11:52:37;8.60;;;4.47;;
55461;SDS011;41327;45.102;20.624;2023-11-21T11:55:06;7.72;;;4.40;;
55461;SDS011;41327;45.102;20.624;2023-11-21T11:57:35;7.28;;;4.00;;
55461;SDS011;41327;45.102;20.624;2023-11-21T12:02:59;6.18;;;4.95;;
55461;SDS011;41327;45.102;20.624;2023-11-21T12:05:30;11.32;;;5.43;;
55461;SDS011;41327;45.102;20.624;2023-11-21T12:08:09;13.60;;;7.28;;
55461;SDS011;41327;45.102;20.624;2023-11-21T12:10:35;13.93;;;6.63;;
55461;SDS011;41327;45.102;20.624;2023-11-21T12:15:38;8.68;;;4.65;;
55461;SDS011;41327;45.102;20.624;2023-11-21T12:18:05;8.13;;;4.30;;
55461;SDS011;41327;45.102;20.624;2023-11-21T12:20:30;11.38;;;4.93;;
55461;SDS011;41327;45.102;20.624;2023-11-21T12:22:57;10.15;;;5.53;;
55461;SDS011;41327;45.102;20.624;2023-11-21T12:25:27;15.23;;;7.60;;
55461;SDS011;41327;45.102;20.624;2023-11-21T12:27:54;35.80;;;14.13;;
55461;SDS011;41327;45.102;20.624;2023-11-21T12:30:21;26.73;;;10.93;;
55461;SDS011;41327;45.102;20.624;2023-11-21T12:32:48;20.35;;;9.10;;
55461;SDS011;41327;45.102;20.624;2023-11-21T12:35:19;13.25;;;7.03;;
55461;SDS011;41327;45.102;20.624;2023-11-21T12:37:46;12.80;;;7.43;;
55461;SDS011;41327;45.102;20.624;2023-11-21T12:40:12;14.27;;;8.07;;
55461;SDS011;41327;45.102;20.624;2023-11-21T12:42:54;8.85;;;6.15;;
55461;SDS011;41327;45.102;20.624;2023-11-21T12:45:22;10.30;;;6.47;;
55461;SDS011;41327;45.102;20.624;2023-11-21T12:47:55;10.07;;;5.78;;
55461;SDS011;41327;45.102;20.624;2023-11-21T12:50:25;9.25;;;5.85;;
55461;SDS011;41327;45.102;20.624;2023-11-21T12:52:58;10.18;;;5.72;;
55461;SDS011;41327;45.102;20.624;2023-11-21T12:55:25;8.82;;;5.68;;
55461;SDS011;41327;45.102;20.624;2023-11-21T12:57:54;11.00;;;5.70;;
55461;SDS011;41327;45.102;20.624;2023-11-21T13:01:06;11.05;;;6.88;;
55461;SDS011;41327;45.102;20.624;2023-11-21T13:03:14;26.80;;;10.48;;
55461;SDS011;41327;45.102;20.624;2023-11-21T13:05:43;53.08;;;18.42;;
55461;SDS011;41327;45.102;20.624;2023-11-21T13:08:11;56.25;;;19.73;;
55461;SDS011;41327;45.102;20.624;2023-11-21T13:10:40;57.45;;;21.30;;
55461;SDS011;41327;45.102;20.624;2023-11-21T13:13:10;57.92;;;21.17;;
55461;SDS011;41327;45.102;20.624;2023-11-21T13:15:46;44.20;;;16.48;;
55461;SDS011;41327;45.102;20.624;2023-11-21T13:18:16;15.30;;;7.65;;
55461;SDS011;41327;45.102;20.624;2023-11-21T13:20:42;17.63;;;7.68;;
55461;SDS011;41327;45.102;20.624;2023-11-21T13:23:09;10.00;;;5.80;;
55461;SDS011;41327;45.102;20.624;2023-11-21T13:25:37;8.13;;;5.07;;
55461;SDS011;41327;45.102;20.624;2023-11-21T13:28:04;10.20;;;5.95;;
55461;SDS011;41327;45.102;20.624;2023-11-21T13:30:30;14.80;;;5.72;;
55461;SDS011;41327;45.102;20.624;2023-11-21T13:33:01;8.75;;;5.55;;
55461;SDS011;41327;45.102;20.624;2023-11-21T13:35:31;8.63;;;5.20;;
55461;SDS011;41327;45.102;20.624;2023-11-21T13:38:06;10.35;;;5.25;;
55461;SDS011;41327;45.102;20.624;2023-11-21T13:40:34;11.32;;;6.53;;
55461;SDS011;41327;45.102;20.624;2023-11-21T13:43:08;9.65;;;5.15;;
55461;SDS011;41327;45.102;20.624;2023-11-21T13:45:41;8.15;;;5.05;;
55461;SDS011;41327;45.102;20.624;2023-11-21T13:48:08;7.32;;;4.78;;
55461;SDS011;41327;45.102;20.624;2023-11-21T13:50:45;8.35;;;5.00;;
55461;SDS011;41327;45.102;20.624;2023-11-21T13:53:20;8.43;;;5.05;;
55461;SDS011;41327;45.102;20.624;2023-11-21T13:55:49;9.55;;;4.82;;
55461;SDS011;41327;45.102;20.624;2023-11-21T13:58:16;9.45;;;4.72;;
55461;SDS011;41327;45.102;20.624;2023-11-21T14:00:48;8.93;;;4.63;;
55461;SDS011;41327;45.102;20.624;2023-11-21T14:03:22;9.55;;;4.95;;
55461;SDS011;41327;45.102;20.624;2023-11-21T14:05:57;11.57;;;5.50;;
55461;SDS011;41327;45.102;20.624;2023-11-21T14:08:23;8.13;;;5.20;;
55461;SDS011;41327;45.102;20.624;2023-11-21T14:10:53;7.45;;;4.90;;
55461;SDS011;41327;45.102;20.624;2023-11-21T14:13:23;9.30;;;5.45;;
55461;SDS011;41327;45.102;20.624;2023-11-21T14:15:49;12.23;;;6.13;;
55461;SDS011;41327;45.102;20.624;2023-11-21T14:18:25;15.68;;;9.32;;
55461;SDS011;41327;45.102;20.624;2023-11-21T14:21:03;20.70;;;11.30;;
55461;SDS011;41327;45.102;20.624;2023-11-21T14:23:33;43.22;;;28.27;;
55461;SDS011;41327;45.102;20.624;2023-11-21T14:26:01;44.63;;;27.55;;
55461;SDS011;41327;45.102;20.624;2023-11-21T14:28:26;75.95;;;30.45;;
55461;SDS011;41327;45.102;20.624;2023-11-21T14:30:52;147.18;;;51.63;;
55461;SDS011;41327;45.102;20.624;2023-11-21T14:33:18;109.25;;;40.33;;
55461;SDS011;41327;45.102;20.624;2023-11-21T14:35:43;64.97;;;27.67;;
55461;SDS011;41327;45.102;20.624;2023-11-21T14:38:09;48.30;;;23.20;;
55461;SDS011;41327;45.102;20.624;2023-11-21T14:40:35;145.07;;;63.78;;
55461;SDS011;41327;45.102;20.624;2023-11-21T14:43:01;76.43;;;35.88;;